createdAt,value
2016-04-17T00:01:16.304Z,1004.69
2016-04-17T00:01:57.104Z,1004.67
2016-04-17T00:04:12.297Z,1004.57
2016-04-17T00:05:12.316Z,1004.54
2016-04-17T00:06:12.334Z,1004.5
2016-04-17T00:07:21.884Z,1004.51
2016-04-17T00:08:21.917Z,1004.55
2016-04-17T00:09:31.452Z,1004.59
2016-04-17T00:10:31.454Z,1004.63
2016-04-17T00:11:31.473Z,1004.63
2016-04-17T00:12:37.757Z,1004.58
2016-04-17T00:13:50.698Z,1004.63
2016-04-17T00:14:31.511Z,1004.56
2016-04-17T00:15:57.204Z,1004.58
2016-04-17T00:16:31.736Z,1004.61
2016-04-17T00:17:31.567Z,1004.65
2016-04-17T00:18:44.131Z,1004.73
2016-04-17T00:19:41.119Z,1004.7
2016-04-17T00:21:00.328Z,1004.68
2016-04-17T00:21:53.877Z,1004.72
2016-04-17T00:22:41.158Z,1004.79
2016-04-17T00:23:41.161Z,1004.82
2016-04-17T00:24:41.195Z,1004.81
2016-04-17T00:25:41.197Z,1004.82
2016-04-17T00:28:09.111Z,1004.78
2016-04-17T00:29:09.129Z,1004.76
2016-04-17T00:30:09.148Z,1004.8
2016-04-17T00:31:09.166Z,1004.72
2016-04-17T00:33:18.703Z,1004.73
2016-04-17T00:34:18.706Z,1004.77
2016-04-17T00:35:21.802Z,1004.76
2016-04-17T00:36:24.852Z,1004.76
2016-04-17T00:37:21.824Z,1004.77
2016-04-17T00:38:34.576Z,1004.74
2016-04-17T00:39:21.845Z,1004.69
2016-04-17T00:40:21.862Z,1004.67
2016-04-17T00:41:41.084Z,1004.68
2016-04-17T00:42:21.899Z,1004.68
2016-04-17T00:43:21.918Z,1004.69
2016-04-17T00:44:25.842Z,1004.69
2016-04-17T00:46:35.581Z,1004.77
2016-04-17T00:47:35.600Z,1004.81
2016-04-17T00:48:35.603Z,1004.86
2016-04-17T00:49:41.887Z,1004.91
2016-04-17T00:50:35.640Z,1004.87
2016-04-17T00:51:41.970Z,1004.92
2016-04-17T00:52:54.867Z,1004.9
2016-04-17T00:53:48.461Z,1004.95
2016-04-17T00:54:35.792Z,1004.97
2016-04-17T00:55:54.906Z,1004.95
2016-04-17T00:56:35.719Z,1004.95
2016-04-17T00:58:35.739Z,1005
2016-04-17T00:59:35.773Z,1004.99
2016-04-17T01:00:35.792Z,1004.98
2016-04-17T01:01:35.810Z,1005.04
2016-04-17T01:02:42.078Z,1005.03
2016-04-17T01:03:35.815Z,1005.03
2016-04-17T01:04:55.040Z,1005.06
2016-04-17T01:05:35.852Z,1005.04
2016-04-17T01:06:35.886Z,1005.01
2016-04-17T01:07:44.888Z,1005.04
2016-04-17T01:08:44.907Z,1005.04
2016-04-17T01:09:44.925Z,1005.03
2016-04-17T01:10:57.665Z,1005.05
2016-04-17T01:11:51.215Z,1005.05
2016-04-17T01:12:44.965Z,1005.09
2016-04-17T01:13:44.983Z,1005.02
2016-04-17T01:15:45.019Z,1005.04
2016-04-17T01:16:45.022Z,1004.97
2016-04-17T01:18:19.418Z,1005.03
2016-04-17T01:19:00.234Z,1005
2016-04-17T01:20:25.923Z,1005.03
2016-04-17T01:21:09.817Z,1005.03
2016-04-17T01:22:09.835Z,1005.05
2016-04-17T01:23:09.838Z,1005.07
2016-04-17T01:24:09.856Z,1005.12
2016-04-17T01:25:29.078Z,1005.16
2016-04-17T01:26:09.892Z,1005.23
2016-04-17T01:27:09.911Z,1005.27
2016-04-17T01:28:39.507Z,1005.28
2016-04-17T01:29:54.700Z,1005.34
2016-04-17T01:30:54.703Z,1005.36
2016-04-17T01:31:54.721Z,1005.39
2016-04-17T01:33:01.005Z,1005.42
2016-04-17T01:33:54.960Z,1005.39
2016-04-17T01:35:13.964Z,1005.42
2016-04-17T01:35:54.794Z,1005.41
2016-04-17T01:37:20.469Z,1005.44
2016-04-17T01:38:04.362Z,1005.43
2016-04-17T01:39:04.381Z,1005.43
2016-04-17T01:40:04.383Z,1005.45
2016-04-17T01:41:04.402Z,1005.44
2016-04-17T01:42:04.420Z,1005.44
2016-04-17T01:43:04.423Z,1005.4
2016-04-17T01:44:04.440Z,1005.43
2016-04-17T01:45:04.459Z,1005.43
2016-04-17T01:46:04.478Z,1005.49
2016-04-17T01:47:04.481Z,1005.56
2016-04-17T01:48:04.498Z,1005.55
2016-04-17T01:49:04.517Z,1005.55
2016-04-17T01:50:04.535Z,1005.6
2016-04-17T01:51:04.538Z,1005.59
2016-04-17T01:52:17.291Z,1005.64
2016-04-17T01:53:17.309Z,1005.64
2016-04-17T01:54:23.797Z,1005.58
2016-04-17T01:55:30.267Z,1005.56
2016-04-17T01:57:04.632Z,1005.52
2016-04-17T01:58:04.635Z,1005.5
2016-04-17T01:59:04.653Z,1005.5
2016-04-17T02:00:04.672Z,1005.49
2016-04-17T02:01:04.674Z,1005.55
2016-04-17T02:02:04.708Z,1005.54
2016-04-17T02:03:04.710Z,1005.57
2016-04-17T02:04:04.730Z,1005.57
2016-04-17T02:05:17.497Z,1005.55
2016-04-17T02:06:04.750Z,1005.55
2016-04-17T02:07:04.768Z,1005.59
2016-04-17T02:08:04.787Z,1005.59
2016-04-17T02:09:17.540Z,1005.6
2016-04-17T02:10:04.918Z,1005.59
2016-04-17T02:11:30.498Z,1005.56
2016-04-17T02:12:12.985Z,1005.56
2016-04-17T02:13:13.003Z,1005.57
2016-04-17T02:14:13.006Z,1005.54
2016-04-17T02:15:13.023Z,1005.52
2016-04-17T02:16:13.043Z,1005.5
2016-04-17T02:17:32.264Z,1005.46
2016-04-17T02:18:19.329Z,1005.45
2016-04-17T02:19:13.081Z,1005.44
2016-04-17T02:20:13.084Z,1005.41
2016-04-17T02:21:13.103Z,1005.41
2016-04-17T02:22:13.126Z,1005.4
2016-04-17T02:23:13.144Z,1005.37
2016-04-17T02:24:13.147Z,1005.38
2016-04-17T02:25:13.166Z,1005.42
2016-04-17T02:26:13.168Z,1005.4
2016-04-17T02:27:13.186Z,1005.38
2016-04-17T02:28:13.205Z,1005.38
2016-04-17T02:29:13.285Z,1005.4
2016-04-17T02:30:13.226Z,1005.41
2016-04-17T02:31:13.244Z,1005.41
2016-04-17T02:32:13.278Z,1005.43
2016-04-17T02:33:13.328Z,1005.43
2016-04-17T02:34:26.033Z,1005.49
2016-04-17T02:35:13.302Z,1005.53
2016-04-17T02:36:13.320Z,1005.55
2016-04-17T02:37:13.323Z,1005.57
2016-04-17T02:38:13.341Z,1005.64
2016-04-17T02:39:13.360Z,1005.64
2016-04-17T02:40:13.362Z,1005.63
2016-04-17T02:41:13.381Z,1005.62
2016-04-17T02:42:13.398Z,1005.64
2016-04-17T02:43:13.417Z,1005.65
2016-04-17T02:44:19.685Z,1005.69
2016-04-17T02:45:13.438Z,1005.74
2016-04-17T02:46:32.706Z,1005.77
2016-04-17T02:47:16.584Z,1005.81
2016-04-17T02:48:16.602Z,1005.81
2016-04-17T02:49:16.606Z,1005.84
2016-04-17T02:50:16.623Z,1005.88
2016-04-17T02:51:16.642Z,1005.91
2016-04-17T02:52:16.660Z,1005.94
2016-04-17T02:53:35.866Z,1005.96
2016-04-17T02:54:16.680Z,1005.94
2016-04-17T02:56:33.124Z,1005.91
2016-04-17T02:57:33.142Z,1005.94
2016-04-17T02:58:33.160Z,1005.95
2016-04-17T02:59:45.929Z,1005.97
2016-04-17T03:00:33.182Z,1006.02
2016-04-17T03:01:33.199Z,1006.02
2016-04-17T03:02:33.218Z,1006
2016-04-17T03:03:33.221Z,1006.07
2016-04-17T03:04:33.239Z,1006.07
2016-04-17T03:05:33.257Z,1006.07
2016-04-17T03:06:33.276Z,1006.07
2016-04-17T03:07:33.279Z,1006.11
2016-04-17T03:08:33.296Z,1006.12
2016-04-17T03:09:33.315Z,1006.11
2016-04-17T03:10:33.318Z,1006.13
2016-04-17T03:11:52.542Z,1006.17
2016-04-17T03:12:52.560Z,1006.14
2016-04-17T03:14:33.376Z,1006.18
2016-04-17T03:15:33.378Z,1006.15
2016-04-17T03:16:33.396Z,1006.12
2016-04-17T03:17:33.414Z,1006.18
2016-04-17T03:18:48.605Z,1006.17
2016-04-17T03:19:48.623Z,1006.17
2016-04-17T03:20:48.641Z,1006.17
2016-04-17T03:21:48.644Z,1006.19
2016-04-17T03:22:48.662Z,1006.15
2016-04-17T03:24:01.418Z,1006.15
2016-04-17T03:24:48.684Z,1006.18
2016-04-17T03:26:07.923Z,1006.18
2016-04-17T03:26:48.720Z,1006.12
2016-04-17T03:28:51.837Z,1006.1
2016-04-17T03:31:04.608Z,1006.12
2016-04-17T03:31:51.877Z,1006.16
2016-04-17T03:32:51.895Z,1006.14
2016-04-17T03:33:51.913Z,1006.18
2016-04-17T03:34:51.915Z,1006.16
2016-04-17T03:35:51.935Z,1006.15
2016-04-17T03:36:51.952Z,1006.14
2016-04-17T03:38:04.705Z,1006.18
2016-04-17T03:38:51.973Z,1006.14
2016-04-17T03:39:52.039Z,1006.13
2016-04-17T03:40:51.995Z,1006.12
2016-04-17T03:41:52.076Z,1006.13
2016-04-17T03:42:52.031Z,1006.09
2016-04-17T03:43:52.050Z,1006.12
2016-04-17T03:44:52.053Z,1006.12
2016-04-17T03:45:52.273Z,1006.13
2016-04-17T03:46:52.089Z,1006.13
2016-04-17T03:47:52.107Z,1006.15
2016-04-17T03:48:52.110Z,1006.14
2016-04-17T03:50:01.707Z,1006.17
2016-04-17T03:51:01.725Z,1006.13
2016-04-17T03:52:08.008Z,1006.13
2016-04-17T03:53:01.746Z,1006.13
2016-04-17T03:54:01.748Z,1006.11
2016-04-17T03:55:01.767Z,1006.06
2016-04-17T03:56:01.785Z,1006.05
2016-04-17T03:57:02.397Z,1006.06
2016-04-17T03:58:21.009Z,1006.07
2016-04-17T03:59:04.949Z,1006.05
2016-04-17T04:00:04.952Z,1006.02
2016-04-17T04:01:04.971Z,1006.03
2016-04-17T04:02:30.645Z,1006.05
2016-04-17T04:03:04.991Z,1006
2016-04-17T04:05:46.028Z,1005.99
2016-04-17T04:06:20.375Z,1005.98
2016-04-17T04:09:01.226Z,1006.01
2016-04-17T04:09:35.570Z,1005.98
2016-04-17T04:11:50.762Z,1006.01
2016-04-17T04:12:50.782Z,1006.03
2016-04-17T04:13:51.424Z,1006.03
2016-04-17T04:14:51.412Z,1005.96
2016-04-17T04:15:50.820Z,1005.99
2016-04-17T04:16:50.824Z,1005.99
2016-04-17T04:17:50.857Z,1006.01
2016-04-17T04:18:50.860Z,1005.98
2016-04-17T04:20:10.068Z,1006
2016-04-17T04:20:53.961Z,1006.03
2016-04-17T04:22:19.636Z,1006.07
2016-04-17T04:23:34.811Z,1006.09
2016-04-17T04:24:34.829Z,1006.13
2016-04-17T04:25:34.831Z,1006.09
2016-04-17T04:26:47.584Z,1006.11
2016-04-17T04:27:34.852Z,1006.09
2016-04-17T04:28:34.871Z,1006.1
2016-04-17T04:29:54.127Z,1006.13
2016-04-17T04:30:34.892Z,1006.14
2016-04-17T04:32:00.585Z,1006.11
2016-04-17T04:32:35.538Z,1006.13
2016-04-17T04:34:50.841Z,1006.21
2016-04-17T04:35:50.891Z,1006.21
2016-04-17T04:36:53.958Z,1006.24
2016-04-17T04:38:19.648Z,1006.25
2016-04-17T04:38:53.994Z,1006.26
2016-04-17T04:40:29.216Z,1006.29
2016-04-17T04:41:03.546Z,1006.28
2016-04-17T04:43:18.724Z,1006.33
2016-04-17T04:44:18.757Z,1006.3
2016-04-17T04:45:18.745Z,1006.34
2016-04-17T04:46:31.497Z,1006.33
2016-04-17T04:47:18.782Z,1006.38
2016-04-17T04:48:35.378Z,1006.33
2016-04-17T04:49:35.396Z,1006.34
2016-04-17T04:51:50.667Z,1006.34
2016-04-17T04:52:50.686Z,1006.37
2016-04-17T04:53:50.704Z,1006.36
2016-04-17T04:55:03.459Z,1006.36
2016-04-17T04:55:56.993Z,1006.36
2016-04-17T04:57:09.949Z,1006.37
2016-04-17T04:58:09.967Z,1006.35
2016-04-17T04:58:50.764Z,1006.36
2016-04-17T05:00:16.458Z,1006.38
2016-04-17T05:01:00.335Z,1006.36
2016-04-17T05:02:00.353Z,1006.38
2016-04-17T05:03:00.371Z,1006.39
2016-04-17T05:04:00.374Z,1006.36
2016-04-17T05:05:06.658Z,1006.36
2016-04-17T05:06:13.146Z,1006.4
2016-04-17T05:07:13.163Z,1006.39
2016-04-17T05:08:19.635Z,1006.37
2016-04-17T05:09:26.121Z,1006.39
2016-04-17T05:11:07.002Z,1006.34
2016-04-17T05:12:07.021Z,1006.36
2016-04-17T05:14:47.917Z,1006.36
2016-04-17T05:15:47.934Z,1006.44
2016-04-17T05:16:47.938Z,1006.42
2016-04-17T05:17:57.490Z,1006.44
2016-04-17T05:18:57.508Z,1006.43
2016-04-17T05:20:10.245Z,1006.46
2016-04-17T05:21:10.263Z,1006.49
2016-04-17T05:21:57.548Z,1006.5
2016-04-17T05:23:16.769Z,1006.52
2016-04-17T05:23:57.569Z,1006.55
2016-04-17T05:25:23.258Z,1006.56
2016-04-17T05:25:57.605Z,1006.59
2016-04-17T05:28:12.798Z,1006.57
2016-04-17T05:29:12.816Z,1006.56
2016-04-17T05:30:12.835Z,1006.53
2016-04-17T05:31:28.025Z,1006.58
2016-04-17T05:32:28.043Z,1006.58
2016-04-17T05:33:28.046Z,1006.62
2016-04-17T05:34:40.799Z,1006.77
2016-04-17T05:35:28.083Z,1006.75
2016-04-17T05:36:47.304Z,1006.75
2016-04-17T05:37:28.104Z,1006.72
2016-04-17T05:39:37.515Z,1006.84
2016-04-17T05:40:37.549Z,1006.85
2016-04-17T05:41:47.099Z,1006.84
2016-04-17T05:42:50.054Z,1006.88
2016-04-17T05:43:53.216Z,1006.89
2016-04-17T05:44:53.235Z,1006.96
2016-04-17T05:45:56.299Z,1006.98
2016-04-17T05:46:56.318Z,1007.03
2016-04-17T05:48:02.602Z,1007.07
2016-04-17T05:50:12.967Z,1007.11
2016-04-17T05:51:12.985Z,1007.11
2016-04-17T05:52:13.004Z,1007.11
2016-04-17T05:53:28.178Z,1007.13
2016-04-17T05:54:28.196Z,1007.16
2016-04-17T05:55:28.839Z,1007.22
2016-04-17T05:56:28.233Z,1007.22
2016-04-17T05:57:28.266Z,1007.2
2016-04-17T05:58:28.286Z,1007.26
2016-04-17T05:59:28.303Z,1007.29
2016-04-17T06:00:28.337Z,1007.26
2016-04-17T06:01:28.355Z,1007.31
2016-04-17T06:02:28.375Z,1007.34
2016-04-17T06:03:28.429Z,1007.36
2016-04-17T06:04:28.503Z,1007.41
2016-04-17T06:05:28.546Z,1007.44
2016-04-17T06:06:28.620Z,1007.43
2016-04-17T06:07:28.677Z,1007.42
2016-04-17T06:08:41.462Z,1007.46
2016-04-17T06:09:28.760Z,1007.45
2016-04-17T06:10:28.809Z,1007.44
2016-04-17T06:11:28.826Z,1007.43
2016-04-17T06:12:28.889Z,1007.5
2016-04-17T06:13:28.913Z,1007.54
2016-04-17T06:14:28.938Z,1007.54
2016-04-17T06:15:28.961Z,1007.57
2016-04-17T06:16:29.001Z,1007.61
2016-04-17T06:17:29.024Z,1007.62
2016-04-17T06:18:29.059Z,1007.67
2016-04-17T06:19:29.080Z,1007.7
2016-04-17T06:20:29.100Z,1007.72
2016-04-17T06:21:29.121Z,1007.68
2016-04-17T06:22:29.157Z,1007.72
2016-04-17T06:23:29.191Z,1007.77
2016-04-17T06:24:29.210Z,1007.78
2016-04-17T06:25:29.245Z,1007.78
2016-04-17T06:26:29.264Z,1007.8
2016-04-17T06:27:29.300Z,1007.81
2016-04-17T06:28:29.317Z,1007.86
2016-04-17T06:29:29.351Z,1007.84
2016-04-17T06:30:29.385Z,1007.81
2016-04-17T06:31:29.481Z,1007.85
2016-04-17T06:32:29.453Z,1007.89
2016-04-17T06:33:42.205Z,1007.93
2016-04-17T06:34:29.474Z,1007.96
2016-04-17T06:35:29.508Z,1007.96
2016-04-17T06:36:29.541Z,1007.98
2016-04-17T06:37:29.576Z,1007.99
2016-04-17T06:38:29.594Z,1008.04
2016-04-17T06:39:29.627Z,1008.07
2016-04-17T06:40:29.647Z,1008.03
2016-04-17T06:41:29.680Z,1008.08
2016-04-17T06:42:29.714Z,1008.13
2016-04-17T06:43:29.733Z,1008.13
2016-04-17T06:44:29.766Z,1008.13
2016-04-17T06:45:29.801Z,1008.12
2016-04-17T06:46:29.804Z,1008.1
2016-04-17T06:47:29.837Z,1008.09
2016-04-17T06:48:29.871Z,1008.15
2016-04-17T06:49:29.905Z,1008.16
2016-04-17T06:50:29.923Z,1008.17
2016-04-17T06:51:42.707Z,1008.2
2016-04-17T06:52:29.976Z,1008.23
2016-04-17T06:53:30.009Z,1008.22
2016-04-17T06:54:30.043Z,1008.22
2016-04-17T06:55:30.124Z,1008.25
2016-04-17T06:56:42.845Z,1008.27
2016-04-17T06:57:30.146Z,1008.28
2016-04-17T06:58:30.163Z,1008.24
2016-04-17T06:59:30.198Z,1008.27
2016-04-17T07:00:30.216Z,1008.27
2016-04-17T07:01:30.250Z,1008.33
2016-04-17T07:02:30.269Z,1008.3
2016-04-17T07:03:36.567Z,1008.29
2016-04-17T07:04:30.352Z,1008.32
2016-04-17T07:05:30.355Z,1008.31
2016-04-17T07:06:30.388Z,1008.34
2016-04-17T07:07:30.422Z,1008.36
2016-04-17T07:08:43.191Z,1008.37
2016-04-17T07:09:30.474Z,1008.33
2016-04-17T07:10:30.508Z,1008.31
2016-04-17T07:11:30.542Z,1008.36
2016-04-17T07:12:56.251Z,1008.37
2016-04-17T07:13:30.579Z,1008.41
2016-04-17T07:15:40.178Z,1008.39
2016-04-17T07:17:55.386Z,1008.44
2016-04-17T07:18:55.421Z,1008.48
2016-04-17T07:19:55.439Z,1008.51
2016-04-17T07:20:55.834Z,1008.47
2016-04-17T07:21:55.506Z,1008.5
2016-04-17T07:22:55.541Z,1008.52
2016-04-17T07:23:55.575Z,1008.51
2016-04-17T07:24:55.593Z,1008.57
2016-04-17T07:25:56.239Z,1008.57
2016-04-17T07:26:55.645Z,1008.6
2016-04-17T07:27:55.682Z,1008.59
2016-04-17T07:28:55.700Z,1008.63
2016-04-17T07:29:55.844Z,1008.62
2016-04-17T07:30:55.767Z,1008.65
2016-04-17T07:32:08.536Z,1008.66
2016-04-17T07:32:55.820Z,1008.7
2016-04-17T07:33:55.855Z,1008.69
2016-04-17T07:34:55.872Z,1008.69
2016-04-17T07:35:55.906Z,1008.72
2016-04-17T07:36:55.941Z,1008.47
2016-04-17T07:37:55.959Z,1008.68
2016-04-17T07:38:56.008Z,1008.75
2016-04-17T07:39:56.011Z,1008.77
2016-04-17T07:40:56.107Z,1008.77
2016-04-17T07:41:56.079Z,1008.74
2016-04-17T07:42:56.097Z,1008.8
2016-04-17T07:43:56.132Z,1008.75
2016-04-17T07:44:56.165Z,1008.81
2016-04-17T07:45:56.199Z,1008.58
2016-04-17T07:46:56.217Z,1008.64
2016-04-17T07:47:56.251Z,1008.9
2016-04-17T07:48:56.270Z,1008.78
2016-04-17T07:49:56.397Z,1008.69
2016-04-17T07:51:09.071Z,1008.86
2016-04-17T07:51:56.356Z,1008.84
2016-04-17T07:53:15.577Z,1008.78
2016-04-17T07:53:59.471Z,1008.8
2016-04-17T07:54:59.489Z,1008.78
2016-04-17T07:55:59.554Z,1008.73
2016-04-17T07:57:09.009Z,1008.76
2016-04-17T07:58:09.012Z,1008.8
2016-04-17T07:59:09.046Z,1008.8
2016-04-17T08:00:24.221Z,1008.73
2016-04-17T08:01:24.239Z,1008.71
2016-04-17T08:02:24.273Z,1008.75
2016-04-17T08:03:24.307Z,1008.75
2016-04-17T08:04:24.419Z,1008.8
2016-04-17T08:05:24.344Z,1008.79
2016-04-17T08:06:37.158Z,1008.83
2016-04-17T08:07:24.396Z,1008.83
2016-04-17T08:08:43.617Z,1008.82
2016-04-17T08:09:27.667Z,1008.85
2016-04-17T08:10:27.592Z,1008.86
2016-04-17T08:11:31.547Z,1008.84
2016-04-17T08:13:41.146Z,1008.86
2016-04-17T08:14:41.165Z,1008.87
2016-04-17T08:16:03.343Z,1008.87
2016-04-17T08:17:03.360Z,1008.95
2016-04-17T08:18:03.378Z,1008.91
2016-04-17T08:19:03.396Z,1008.91
2016-04-17T08:20:03.431Z,1008.88
2016-04-17T08:21:16.183Z,1008.9
2016-04-17T08:22:03.468Z,1008.9
2016-04-17T08:23:29.157Z,1008.97
2016-04-17T08:24:13.020Z,1008.95
2016-04-17T08:25:22.584Z,1008.91
2016-04-17T08:26:22.603Z,1008.93
2016-04-17T08:27:22.637Z,1008.9
2016-04-17T08:28:24.078Z,1009
2016-04-17T08:29:22.690Z,1008.97
2016-04-17T08:30:22.692Z,1009.01
2016-04-17T08:31:22.711Z,1008.97
2016-04-17T08:32:41.931Z,1008.99
2016-04-17T08:33:22.747Z,1008.99
2016-04-17T08:34:48.453Z,1009.01
2016-04-17T08:35:35.518Z,1009.02
2016-04-17T08:36:22.817Z,1009
2016-04-17T08:37:42.039Z,1009.03
2016-04-17T08:38:22.869Z,1009.02
2016-04-17T08:39:22.872Z,1009.09
2016-04-17T08:40:22.891Z,1009.07
2016-04-17T08:41:22.910Z,1009.11
2016-04-17T08:42:22.928Z,1009.13
2016-04-17T08:43:22.947Z,1009.17
2016-04-17T08:44:22.980Z,1009.14
2016-04-17T08:45:22.998Z,1009.2
2016-04-17T08:46:23.001Z,1009.22
2016-04-17T08:47:23.051Z,1009.21
2016-04-17T08:48:23.054Z,1009.24
2016-04-17T08:49:23.071Z,1009.27
2016-04-17T08:50:23.090Z,1009.26
2016-04-17T08:51:23.108Z,1009.26
2016-04-17T08:52:48.799Z,1009.27
2016-04-17T08:53:32.692Z,1009.26
2016-04-17T08:54:32.709Z,1009.35
2016-04-17T08:55:32.728Z,1009.34
2016-04-17T08:56:47.934Z,1009.34
2016-04-17T08:57:47.953Z,1009.34
2016-04-17T08:58:47.971Z,1009.34
2016-04-17T08:59:47.989Z,1009.35
2016-04-17T09:00:48.007Z,1009.47
2016-04-17T09:01:48.026Z,1009.45
2016-04-17T09:03:00.794Z,1009.49
2016-04-17T09:03:48.062Z,1009.46
2016-04-17T09:04:48.096Z,1009.47
2016-04-17T09:05:48.099Z,1009.47
2016-04-17T09:06:48.133Z,1009.5
2016-04-17T09:07:48.151Z,1009.5
2016-04-17T09:08:48.153Z,1009.52
2016-04-17T09:09:48.188Z,1009.51
2016-04-17T09:10:48.190Z,1009.47
2016-04-17T09:11:48.225Z,1009.43
2016-04-17T09:12:48.243Z,1009.49
2016-04-17T09:13:48.261Z,1009.51
2016-04-17T09:14:51.326Z,1009.53
2016-04-17T09:15:48.298Z,1009.6
2016-04-17T09:16:48.316Z,1009.58
2016-04-17T09:17:48.335Z,1009.58
2016-04-17T09:18:54.665Z,1009.57
2016-04-17T09:19:48.371Z,1009.56
2016-04-17T09:21:07.610Z,1009.59
2016-04-17T09:21:48.610Z,1009.59
2016-04-17T09:23:14.115Z,1009.6
2016-04-17T09:23:48.443Z,1009.58
2016-04-17T09:24:48.479Z,1009.63
2016-04-17T09:25:48.496Z,1009.64
2016-04-17T09:26:48.515Z,1009.67
2016-04-17T09:27:48.549Z,1009.65
2016-04-17T09:28:48.568Z,1009.64
2016-04-17T09:29:48.570Z,1009.72
2016-04-17T09:30:48.604Z,1009.76
2016-04-17T09:31:48.622Z,1009.74
2016-04-17T09:32:48.640Z,1009.72
2016-04-17T09:33:48.659Z,1009.74
2016-04-17T09:34:48.678Z,1009.75
2016-04-17T09:35:48.695Z,1009.78
2016-04-17T09:37:01.448Z,1009.86
2016-04-17T09:37:48.748Z,1009.87
2016-04-17T09:38:48.751Z,1009.84
2016-04-17T09:39:48.784Z,1009.83
2016-04-17T09:40:48.787Z,1009.81
2016-04-17T09:42:01.556Z,1009.86
2016-04-17T09:42:48.839Z,1009.88
2016-04-17T09:44:08.079Z,1009.9
2016-04-17T09:44:48.875Z,1009.89
2016-04-17T09:45:48.894Z,1009.92
2016-04-17T09:46:48.913Z,1009.89
2016-04-17T09:47:48.930Z,1009.87
2016-04-17T09:48:48.966Z,1009.91
2016-04-17T09:49:48.983Z,1009.97
2016-04-17T09:50:49.017Z,1009.97
2016-04-17T09:51:49.020Z,1009.96
2016-04-17T09:52:49.038Z,1010
2016-04-17T09:53:49.057Z,1009.97
2016-04-17T09:54:49.075Z,1010.02
2016-04-17T09:55:49.093Z,1010.08
2016-04-17T09:56:49.112Z,1010.11
2016-04-17T09:57:49.146Z,1010.1
2016-04-17T09:58:49.163Z,1010.14
2016-04-17T09:59:49.181Z,1010.07
2016-04-17T10:00:49.200Z,1010.06
2016-04-17T10:01:49.234Z,1010.13
2016-04-17T10:03:01.971Z,1010.15
2016-04-17T10:03:49.256Z,1010.14
2016-04-17T10:04:49.290Z,1010.14
2016-04-17T10:06:02.026Z,1010.16
2016-04-17T10:06:49.326Z,1010.16
2016-04-17T10:07:49.345Z,1010.17
2016-04-17T10:08:49.362Z,1010.23
2016-04-17T10:09:49.380Z,1010.21
2016-04-17T10:10:49.400Z,1010.28
2016-04-17T10:11:49.417Z,1010.26
2016-04-17T10:12:49.436Z,1010.24
2016-04-17T10:13:49.453Z,1010.25
2016-04-17T10:14:49.488Z,1010.27
2016-04-17T10:16:02.240Z,1010.27
2016-04-17T10:16:49.525Z,1010.26
2016-04-17T10:17:49.543Z,1010.29
2016-04-17T10:18:55.671Z,1010.3
2016-04-17T10:19:52.674Z,1010.34
2016-04-17T10:20:55.801Z,1010.24
2016-04-17T10:21:55.819Z,1010.24
2016-04-17T10:22:55.931Z,1010.34
2016-04-17T10:23:55.855Z,1010.37
2016-04-17T10:24:55.874Z,1010.37
2016-04-17T10:26:15.098Z,1010.33
2016-04-17T10:26:55.910Z,1010.4
2016-04-17T10:29:05.651Z,1010.44
2016-04-17T10:30:05.685Z,1010.43
2016-04-17T10:31:05.703Z,1010.37
2016-04-17T10:32:05.721Z,1010.43
2016-04-17T10:33:05.739Z,1010.45
2016-04-17T10:34:12.042Z,1010.47
2016-04-17T10:35:05.792Z,1010.47
2016-04-17T10:36:05.809Z,1010.43
2016-04-17T10:37:05.828Z,1010.44
2016-04-17T10:38:05.909Z,1010.37
2016-04-17T10:39:05.865Z,1010.4
2016-04-17T10:40:05.899Z,1010.43
2016-04-17T10:41:05.901Z,1010.44
2016-04-17T10:42:05.936Z,1010.36
2016-04-17T10:43:05.953Z,1010.36
2016-04-17T10:44:05.956Z,1010.37
2016-04-17T10:45:05.991Z,1010.39
2016-04-17T10:46:06.008Z,1010.45
2016-04-17T10:47:06.043Z,1010.43
2016-04-17T10:48:06.060Z,1010.5
2016-04-17T10:49:18.817Z,1010.48
2016-04-17T10:50:06.098Z,1010.5
2016-04-17T10:51:31.791Z,1010.47
2016-04-17T10:52:15.669Z,1010.49
2016-04-17T10:53:25.218Z,1010.45
2016-04-17T10:54:25.236Z,1010.49
2016-04-17T10:56:39.819Z,1010.52
2016-04-17T10:57:39.837Z,1010.56
2016-04-17T10:58:39.840Z,1010.49
2016-04-17T10:59:39.875Z,1010.54
2016-04-17T11:00:39.893Z,1010.48
2016-04-17T11:01:39.990Z,1010.52
2016-04-17T11:02:39.929Z,1010.53
2016-04-17T11:03:52.792Z,1010.51
2016-04-17T11:04:39.982Z,1010.58
2016-04-17T11:05:40.000Z,1010.58
2016-04-17T11:06:40.018Z,1010.68
2016-04-17T11:07:40.036Z,1010.71
2016-04-17T11:08:40.055Z,1010.76
2016-04-17T11:09:40.089Z,1010.85
2016-04-17T11:10:40.106Z,1010.82
2016-04-17T11:11:40.141Z,1010.84
2016-04-17T11:12:40.144Z,1010.88
2016-04-17T11:13:40.178Z,1010.89
2016-04-17T11:14:40.197Z,1010.91
2016-04-17T11:15:40.214Z,1010.91
2016-04-17T11:16:40.311Z,1010.98
2016-04-17T11:17:40.267Z,1011
2016-04-17T11:18:40.285Z,1011.06
2016-04-17T11:19:53.053Z,1011.09
2016-04-17T11:20:40.338Z,1011.09
2016-04-17T11:21:40.356Z,1011.08
2016-04-17T11:22:40.374Z,1011.14
2016-04-17T11:23:40.391Z,1011.09
2016-04-17T11:24:40.410Z,1011.18
2016-04-17T11:25:40.444Z,1011.13
2016-04-17T11:26:40.463Z,1011.12
2016-04-17T11:27:53.215Z,1011.17
2016-04-17T11:28:40.499Z,1011.14
2016-04-17T11:29:59.721Z,1011.18
2016-04-17T11:30:40.551Z,1011.29
2016-04-17T11:31:40.570Z,1011.22
2016-04-17T11:32:40.588Z,1011.17
2016-04-17T11:33:40.622Z,1011.21
2016-04-17T11:34:40.641Z,1011.29
2016-04-17T11:35:40.659Z,1011.23
2016-04-17T11:36:40.676Z,1011.18
2016-04-17T11:37:40.695Z,1011.27
2016-04-17T11:38:40.714Z,1011.29
2016-04-17T11:39:40.732Z,1011.32
2016-04-17T11:40:40.781Z,1011.3
2016-04-17T11:41:40.831Z,1011.29
2016-04-17T11:42:40.803Z,1011.38
2016-04-17T11:43:40.837Z,1011.35
2016-04-17T11:44:40.856Z,1011.45
2016-04-17T11:45:40.873Z,1011.4
2016-04-17T11:46:40.892Z,1011.49
2016-04-17T11:47:40.911Z,1011.48
2016-04-17T11:48:40.928Z,1011.45
2016-04-17T11:49:47.228Z,1011.47
2016-04-17T11:50:40.996Z,1011.55
2016-04-17T11:51:41.014Z,1011.49
2016-04-17T11:52:41.032Z,1011.55
2016-04-17T11:53:41.051Z,1011.53
2016-04-17T11:54:41.069Z,1011.51
2016-04-17T11:56:56.934Z,1011.51
2016-04-17T11:57:56.952Z,1011.54
2016-04-17T11:58:56.986Z,1011.5
2016-04-17T11:59:57.005Z,1011.5
2016-04-17T12:00:57.024Z,1011.53
2016-04-17T12:01:57.057Z,1011.53
2016-04-17T12:02:57.076Z,1011.52
2016-04-17T12:03:57.094Z,1011.49
2016-04-17T12:04:57.112Z,1011.54
2016-04-17T12:05:57.130Z,1011.52
2016-04-17T12:06:57.165Z,1011.53
2016-04-17T12:08:03.448Z,1011.51
2016-04-17T12:08:57.217Z,1011.51
2016-04-17T12:10:16.425Z,1011.51
2016-04-17T12:11:00.331Z,1011.53
2016-04-17T12:12:00.350Z,1011.5
2016-04-17T12:13:00.368Z,1011.54
2016-04-17T12:14:00.386Z,1011.55
2016-04-17T12:15:00.420Z,1011.54
2016-04-17T12:16:26.113Z,1011.57
2016-04-17T12:17:10.003Z,1011.64
2016-04-17T12:18:35.696Z,1011.66
2016-04-17T12:19:10.039Z,1011.7
2016-04-17T12:20:22.795Z,1011.67
2016-04-17T12:21:20.298Z,1011.6
2016-04-17T12:23:31.288Z,1011.81
2016-04-17T12:24:31.305Z,1011.95
2016-04-17T12:25:47.106Z,1011.94
2016-04-17T12:27:47.033Z,1011.83
2016-04-17T12:28:44.021Z,1011.94
2016-04-17T12:29:59.288Z,1011.91
2016-04-17T12:30:59.291Z,1011.94
2016-04-17T12:31:59.310Z,1011.98
2016-04-17T12:32:59.344Z,1012.09
2016-04-17T12:33:59.346Z,1012.11
2016-04-17T12:35:18.571Z,1012.11
2016-04-17T12:36:12.133Z,1012.19
2016-04-17T12:37:25.091Z,1012.23
2016-04-17T12:38:59.485Z,1012.19
2016-04-17T12:40:25.162Z,1012.19
2016-04-17T12:41:40.446Z,1012.24
2016-04-17T12:42:49.808Z,1012.29
2016-04-17T12:45:25.316Z,1012.27
2016-04-17T12:47:40.540Z,1012.21
2016-04-17T12:48:40.558Z,1012.24
2016-04-17T12:49:40.608Z,1012.27
2016-04-17T12:52:21.256Z,1012.35
2016-04-17T12:54:30.668Z,1012.35
2016-04-17T12:55:30.686Z,1012.31
2016-04-17T12:56:40.188Z,1012.36
2016-04-17T12:58:49.694Z,1012.37
2016-04-17T12:59:49.713Z,1012.39
2016-04-17T13:01:02.482Z,1012.35
2016-04-17T13:01:50.360Z,1012.42